createdAt,value
2022-08-11T00:00:09.168Z,9.40
2022-08-11T00:02:46.302Z,9.43
2022-08-11T00:05:16.446Z,10.52
2022-08-11T00:07:55.010Z,9.70
2022-08-11T00:10:27.649Z,10.15
2022-08-11T00:13:09.519Z,10.02
2022-08-11T00:15:44.204Z,10.15
2022-08-11T00:18:12.597Z,10.45
2022-08-11T00:20:44.025Z,10.80
2022-08-11T00:23:17.437Z,9.88
2022-08-11T00:25:47.722Z,9.35
2022-08-11T00:28:27.163Z,9.30
2022-08-11T00:30:56.422Z,9.07
2022-08-11T00:33:41.107Z,9.90
2022-08-11T00:36:16.052Z,9.65
2022-08-11T00:38:45.652Z,10.60
2022-08-11T00:41:30.989Z,10.35
2022-08-11T00:44:10.098Z,10.55
2022-08-11T00:47:13.888Z,10.40
2022-08-11T00:49:52.474Z,10.27
2022-08-11T00:52:43.222Z,10.60
2022-08-11T00:55:55.821Z,10.50
2022-08-11T00:58:43.093Z,11.23
2022-08-11T01:01:23.350Z,10.95
2022-08-11T01:04:14.673Z,10.88
2022-08-11T01:06:56.722Z,11.30
2022-08-11T01:09:42.446Z,12.30
2022-08-11T01:12:29.530Z,11.93
2022-08-11T01:15:33.551Z,12.18
2022-08-11T01:18:19.299Z,11.88
2022-08-11T01:21:04.433Z,12.50
2022-08-11T01:23:50.238Z,12.40
2022-08-11T01:26:54.984Z,13.15
2022-08-11T01:29:33.977Z,12.75
2022-08-11T01:32:29.342Z,12.88
2022-08-11T01:35:18.267Z,13.57
2022-08-11T01:38:17.429Z,14.23
2022-08-11T01:41:21.549Z,13.98
2022-08-11T01:44:26.024Z,14.88
2022-08-11T01:47:53.146Z,14.75
2022-08-11T01:50:51.854Z,14.45
2022-08-11T01:53:42.860Z,16.05
2022-08-11T01:56:53.650Z,16.10
2022-08-11T01:59:26.069Z,14.95
2022-08-11T02:02:11.561Z,14.52
2022-08-11T02:05:26.878Z,14.68
2022-08-11T02:08:11.988Z,14.23
2022-08-11T02:11:14.055Z,12.75
2022-08-11T02:13:53.976Z,13.45
2022-08-11T02:16:45.704Z,13.50
2022-08-11T02:19:45.376Z,13.73
2022-08-11T02:22:34.597Z,13.25
2022-08-11T02:25:04.359Z,11.80
2022-08-11T02:27:48.318Z,11.93
2022-08-11T02:30:18.465Z,11.88
2022-08-11T02:33:24.665Z,11.70
2022-08-11T02:36:36.533Z,9.98
2022-08-11T02:39:10.677Z,8.30
2022-08-11T02:42:35.254Z,8.80
2022-08-11T02:45:01.697Z,8.80
2022-08-11T02:47:38.306Z,8.68
2022-08-11T02:50:13.424Z,11.45
2022-08-11T02:52:52.270Z,11.68
2022-08-11T02:55:55.692Z,12.63
2022-08-11T02:58:36.765Z,14.13
2022-08-11T03:01:17.124Z,13.18
2022-08-11T03:04:06.980Z,13.82
2022-08-11T03:06:49.550Z,12.15
2022-08-11T03:09:30.460Z,13.05
2022-08-11T03:12:53.441Z,14.80
2022-08-11T03:16:06.541Z,15.23
2022-08-11T03:18:41.417Z,17.17
2022-08-11T03:21:52.292Z,15.68
2022-08-11T03:24:33.865Z,14.50
2022-08-11T03:27:36.892Z,15.98
2022-08-11T03:30:21.437Z,15.88
2022-08-11T03:33:18.650Z,15.68
2022-08-11T03:36:10.807Z,16.63
2022-08-11T03:39:03.787Z,15.65
2022-08-11T03:42:04.072Z,15.10
2022-08-11T03:44:38.091Z,14.80
2022-08-11T03:47:24.310Z,14.20
2022-08-11T03:50:30.372Z,14.50
2022-08-11T03:53:30.931Z,14.68
2022-08-11T03:56:40.873Z,14.02
2022-08-11T03:59:51.254Z,12.40
2022-08-11T04:02:35.379Z,11.57
2022-08-11T04:05:26.057Z,11.73
2022-08-11T04:08:01.541Z,10.25
2022-08-11T04:11:00.129Z,9.43
2022-08-11T04:14:17.846Z,10.75
2022-08-11T04:16:54.889Z,11.05
2022-08-11T04:19:33.713Z,12.52
2022-08-11T04:22:17.969Z,13.45
2022-08-11T04:25:11.147Z,13.40
2022-08-11T04:28:28.861Z,11.80
2022-08-11T04:31:05.730Z,9.85
2022-08-11T04:33:41.763Z,8.75
2022-08-11T04:36:56.499Z,7.78
2022-08-11T04:39:26.402Z,8.45
2022-08-11T04:42:48.662Z,14.70
2022-08-11T04:45:44.908Z,17.35
2022-08-11T04:48:53.087Z,16.73
2022-08-11T04:51:54.330Z,17.60
2022-08-11T04:55:13.273Z,19.23
2022-08-11T04:58:20.617Z,19.67
2022-08-11T05:01:36.978Z,19.58
2022-08-11T05:04:32.393Z,20.30
2022-08-11T05:07:49.389Z,19.15
2022-08-11T05:10:32.200Z,21.23
2022-08-11T05:13:22.584Z,21.42
2022-08-11T05:16:17.092Z,21.33
2022-08-11T05:19:12.080Z,22.65
2022-08-11T05:22:05.005Z,22.77
2022-08-11T05:25:00.932Z,22.23
2022-08-11T05:28:04.624Z,20.13
2022-08-11T05:30:51.037Z,20.60
2022-08-11T05:34:07.598Z,20.45
2022-08-11T05:36:44.566Z,19.05
2022-08-11T05:39:36.794Z,18.52
2022-08-11T05:42:29.996Z,17.75
2022-08-11T05:45:58.146Z,17.23
2022-08-11T05:48:55.088Z,17.92
2022-08-11T05:51:51.902Z,16.65
2022-08-11T05:54:42.065Z,16.58
2022-08-11T05:57:10.273Z,15.88
2022-08-11T06:00:02.406Z,14.88
2022-08-11T06:02:33.865Z,14.65
2022-08-11T06:05:02.322Z,14.57
2022-08-11T06:07:48.373Z,13.48
2022-08-11T06:10:51.912Z,13.00
2022-08-11T06:13:19.078Z,12.95
2022-08-11T06:15:49.561Z,13.05
2022-08-11T06:18:17.320Z,12.88
2022-08-11T06:20:56.487Z,12.07
2022-08-11T06:23:30.782Z,11.55
2022-08-11T06:25:59.075Z,11.45
2022-08-11T06:28:32.738Z,11.20
2022-08-11T06:31:00.698Z,11.80
2022-08-11T06:33:35.314Z,10.65
2022-08-11T06:36:12.679Z,9.88
2022-08-11T06:38:45.098Z,9.65
2022-08-11T06:41:30.666Z,10.00
2022-08-11T06:44:13.211Z,9.77
2022-08-11T06:46:44.184Z,8.85
2022-08-11T06:49:32.750Z,9.10
2022-08-11T06:52:05.965Z,9.30
2022-08-11T06:54:41.411Z,8.45
2022-08-11T06:57:32.618Z,8.80
2022-08-11T07:00:19.498Z,8.50
2022-08-11T07:03:01.064Z,8.68
2022-08-11T07:05:43.714Z,8.40
2022-08-11T07:08:34.798Z,8.30
2022-08-11T07:11:59.395Z,8.27
2022-08-11T07:14:48.844Z,7.80
2022-08-11T07:17:19.775Z,8.35
2022-08-11T07:20:14.160Z,7.90
2022-08-11T07:23:02.145Z,7.35
2022-08-11T07:25:50.439Z,7.72
2022-08-11T07:28:44.936Z,6.13
2022-08-11T07:31:21.496Z,7.35
2022-08-11T07:34:07.923Z,7.03
2022-08-11T07:36:46.014Z,7.43
2022-08-11T07:39:21.124Z,7.72
2022-08-11T07:41:50.298Z,7.68
2022-08-11T07:44:17.893Z,7.57
2022-08-11T07:47:06.597Z,7.57
2022-08-11T07:49:54.903Z,8.05
2022-08-11T07:52:31.280Z,7.13
2022-08-11T07:55:04.867Z,7.30
2022-08-11T07:58:14.683Z,7.28
2022-08-11T08:01:10.793Z,7.97
2022-08-11T08:04:07.238Z,8.30
2022-08-11T08:06:53.224Z,7.63
2022-08-11T08:09:40.432Z,8.45
2022-08-11T08:12:27.693Z,8.00
2022-08-11T08:15:14.587Z,7.65
2022-08-11T08:18:10.097Z,8.00
2022-08-11T08:20:45.632Z,8.70
2022-08-11T08:23:13.222Z,8.27
2022-08-11T08:25:43.251Z,8.13
2022-08-11T08:28:14.779Z,8.57
2022-08-11T08:30:50.655Z,10.02
2022-08-11T08:33:23.397Z,9.27
2022-08-11T08:36:11.596Z,10.23
2022-08-11T08:38:49.213Z,10.93
2022-08-11T08:41:29.807Z,11.13
2022-08-11T08:44:15.127Z,12.15
2022-08-11T08:46:52.152Z,12.63
2022-08-11T08:49:31.234Z,12.95
2022-08-11T08:52:26.296Z,13.90
2022-08-11T08:54:54.174Z,12.70
2022-08-11T08:57:23.600Z,13.95
2022-08-11T08:59:51.779Z,13.20
2022-08-11T09:02:33.975Z,12.93
2022-08-11T09:05:03.894Z,12.98
2022-08-11T09:07:39.027Z,12.60
2022-08-11T09:10:09.469Z,13.00
2022-08-11T09:12:39.990Z,12.60
2022-08-11T09:15:10.319Z,13.10
2022-08-11T09:17:43.652Z,13.23
2022-08-11T09:20:22.208Z,12.93
2022-08-11T09:24:06.338Z,13.30
2022-08-11T09:26:18.063Z,13.43
2022-08-11T09:28:46.961Z,13.50
2022-08-11T09:31:15.275Z,13.13
2022-08-11T09:33:44.721Z,13.70
2022-08-11T09:36:32.090Z,12.43
2022-08-11T09:39:19.854Z,12.82
2022-08-11T09:42:01.785Z,12.65
2022-08-11T09:44:50.497Z,13.95
2022-08-11T09:47:38.307Z,13.30
2022-08-11T09:50:09.058Z,13.70
2022-08-11T09:52:57.098Z,13.27
2022-08-11T09:55:28.073Z,12.45
2022-08-11T09:58:41.681Z,12.38
2022-08-11T10:01:02.640Z,12.95
2022-08-11T10:03:32.993Z,12.50
2022-08-11T10:06:34.519Z,12.52
2022-08-11T10:09:06.267Z,11.77
2022-08-11T10:11:36.559Z,11.73
2022-08-11T10:14:33.992Z,11.70
2022-08-11T10:17:08.199Z,11.35
2022-08-11T10:19:37.866Z,11.48
2022-08-11T10:22:24.576Z,11.60
2022-08-11T10:25:15.438Z,11.48
2022-08-11T10:28:33.015Z,11.65
2022-08-11T10:31:06.661Z,11.30
2022-08-11T10:33:57.714Z,10.88
2022-08-11T10:36:33.569Z,11.00
2022-08-11T10:39:02.586Z,11.82
2022-08-11T10:42:06.929Z,10.63
2022-08-11T10:44:43.425Z,10.95
2022-08-11T10:47:31.280Z,11.15
2022-08-11T10:50:19.526Z,11.02
2022-08-11T10:53:08.228Z,11.45
2022-08-11T10:55:58.752Z,11.18
2022-08-11T10:58:44.660Z,10.82
2022-08-11T11:01:14.570Z,10.70
2022-08-11T11:03:42.604Z,10.90
2022-08-11T11:06:44.900Z,11.07
2022-08-11T11:09:15.752Z,11.00
2022-08-11T11:12:09.619Z,11.07
2022-08-11T11:14:59.178Z,10.52
2022-08-11T11:17:53.892Z,10.88
2022-08-11T11:20:37.188Z,10.85
2022-08-11T11:23:25.670Z,10.90
2022-08-11T11:26:07.175Z,10.80
2022-08-11T11:28:56.084Z,10.93
2022-08-11T11:31:45.911Z,10.32
2022-08-11T11:34:47.955Z,11.30
2022-08-11T11:37:25.841Z,10.55
2022-08-11T11:39:55.262Z,11.00
2022-08-11T11:42:22.950Z,10.75
2022-08-11T11:44:54.107Z,11.00
2022-08-11T11:47:23.626Z,10.88
2022-08-11T11:49:50.893Z,10.20
2022-08-11T11:52:20.398Z,10.80
2022-08-11T11:54:50.472Z,10.20
2022-08-11T11:57:38.116Z,10.25
2022-08-11T12:00:25.411Z,11.20
2022-08-11T12:03:10.379Z,10.60
2022-08-11T12:05:40.776Z,10.75
2022-08-11T12:08:17.360Z,10.98
2022-08-11T12:10:50.895Z,11.05
2022-08-11T12:13:39.661Z,10.93
2022-08-11T12:16:35.069Z,11.02
2022-08-11T12:19:01.244Z,11.30
2022-08-11T12:21:29.707Z,11.30
2022-08-11T12:24:17.111Z,11.02
2022-08-11T12:27:16.237Z,11.05
2022-08-11T12:29:51.403Z,10.68
2022-08-11T12:32:24.576Z,10.45
2022-08-11T12:34:52.255Z,10.13
2022-08-11T12:37:23.700Z,9.73
2022-08-11T12:40:43.207Z,10.23
2022-08-11T12:43:37.964Z,10.15
2022-08-11T12:46:31.904Z,10.60
2022-08-11T12:49:30.912Z,10.68
2022-08-11T12:52:13.417Z,10.90
2022-08-11T12:54:52.243Z,11.02
2022-08-11T12:57:54.494Z,11.40
2022-08-11T13:00:41.106Z,11.38
2022-08-11T13:03:28.947Z,11.60
2022-08-11T13:05:58.506Z,11.48
2022-08-11T13:08:27.885Z,12.07
2022-08-11T13:11:16.185Z,11.68
2022-08-11T13:13:55.698Z,11.63
2022-08-11T13:16:28.026Z,11.60
2022-08-11T13:18:57.586Z,11.65
2022-08-11T13:21:26.237Z,11.20
2022-08-11T13:24:00.319Z,12.10
2022-08-11T13:26:43.302Z,11.82
2022-08-11T13:29:21.761Z,11.60
2022-08-11T13:31:48.819Z,11.27
2022-08-11T13:34:17.797Z,11.55
2022-08-11T13:36:45.870Z,11.25
2022-08-11T13:39:14.002Z,11.35
2022-08-11T13:41:44.181Z,11.02
2022-08-11T13:44:15.929Z,11.43
2022-08-11T13:46:46.850Z,11.50
2022-08-11T13:49:18.122Z,11.00
2022-08-11T13:51:45.505Z,11.15
2022-08-11T13:54:19.604Z,11.00
2022-08-11T13:56:51.218Z,10.77
2022-08-11T13:59:31.170Z,10.90
2022-08-11T14:02:28.102Z,10.57
2022-08-11T14:04:56.240Z,10.98
2022-08-11T14:07:25.795Z,10.80
2022-08-11T14:09:59.212Z,11.20
2022-08-11T14:12:54.016Z,11.13
2022-08-11T14:15:35.651Z,10.32
2022-08-11T14:18:09.396Z,10.90
2022-08-11T14:21:00.459Z,10.13
2022-08-11T14:23:39.708Z,10.40
2022-08-11T14:26:26.361Z,10.05
2022-08-11T14:29:08.470Z,10.00
2022-08-11T14:31:38.987Z,9.85
2022-08-11T14:34:10.442Z,10.57
2022-08-11T14:36:40.620Z,9.85
2022-08-11T14:39:13.387Z,10.40
2022-08-11T14:42:10.548Z,10.07
2022-08-11T14:45:01.997Z,10.18
2022-08-11T14:47:33.792Z,10.30
2022-08-11T14:50:09.741Z,9.90
2022-08-11T14:52:50.387Z,9.95
2022-08-11T14:55:39.385Z,10.10
2022-08-11T14:58:09.978Z,10.35
2022-08-11T15:00:37.647Z,10.55
2022-08-11T15:03:12.942Z,10.13
2022-08-11T15:06:02.312Z,10.50
2022-08-11T15:08:50.341Z,9.98
2022-08-11T15:11:43.927Z,10.57
2022-08-11T15:14:12.733Z,10.43
2022-08-11T15:17:03.506Z,10.18
2022-08-11T15:19:40.456Z,10.30
2022-08-11T15:22:28.940Z,10.52
2022-08-11T15:24:58.696Z,10.45
2022-08-11T15:27:46.890Z,10.18
2022-08-11T15:30:34.201Z,10.52
2022-08-11T15:33:25.596Z,9.90
2022-08-11T15:36:13.620Z,9.60
2022-08-11T15:38:44.774Z,10.05
2022-08-11T15:41:35.795Z,9.68
2022-08-11T15:44:51.242Z,10.30
2022-08-11T15:47:19.180Z,10.32
2022-08-11T15:50:10.759Z,10.18
2022-08-11T15:52:47.258Z,9.38
2022-08-11T15:55:15.779Z,9.38
2022-08-11T15:58:03.207Z,9.40
2022-08-11T16:00:58.777Z,10.32
2022-08-11T16:04:06.632Z,9.55
2022-08-11T16:07:00.112Z,9.73
2022-08-11T16:09:46.931Z,9.15
2022-08-11T16:12:23.102Z,8.77
2022-08-11T16:15:13.072Z,9.52
2022-08-11T16:17:50.736Z,9.55
2022-08-11T16:20:21.971Z,9.60
2022-08-11T16:23:00.507Z,9.70
2022-08-11T16:27:03.580Z,9.30
2022-08-11T16:28:20.862Z,9.60
2022-08-11T16:30:49.426Z,9.82
2022-08-11T16:33:48.104Z,9.95
2022-08-11T16:36:25.415Z,9.57
2022-08-11T16:38:54.440Z,10.50
2022-08-11T16:41:42.984Z,9.90
2022-08-11T16:44:37.229Z,9.80
2022-08-11T16:47:16.406Z,9.30
2022-08-11T16:49:52.537Z,9.85
2022-08-11T16:52:22.917Z,9.32
2022-08-11T16:54:52.893Z,9.52
2022-08-11T16:57:43.879Z,10.00
2022-08-11T17:00:15.455Z,9.68
2022-08-11T17:03:04.486Z,9.95
2022-08-11T17:05:53.835Z,9.70
2022-08-11T17:08:56.726Z,9.50
2022-08-11T17:11:55.543Z,10.07
2022-08-11T17:14:35.406Z,9.50
2022-08-11T17:17:06.102Z,9.50
2022-08-11T17:20:41.644Z,9.90
2022-08-11T17:22:41.924Z,9.65
2022-08-11T17:25:11.195Z,10.38
2022-08-11T17:27:39.601Z,10.48
2022-08-11T17:30:08.726Z,11.05
2022-08-11T17:33:00.657Z,10.23
2022-08-11T17:35:38.762Z,10.57
2022-08-11T17:38:12.482Z,10.80
2022-08-11T17:41:03.250Z,10.55
2022-08-11T17:43:49.550Z,10.20
2022-08-11T17:46:36.578Z,9.85
2022-08-11T17:49:07.793Z,10.27
2022-08-11T17:51:56.009Z,10.75
2022-08-11T17:54:42.930Z,10.85
2022-08-11T17:57:30.368Z,11.60
2022-08-11T17:59:58.617Z,11.18
2022-08-11T18:02:55.847Z,10.20
2022-08-11T18:05:26.467Z,10.60
2022-08-11T18:08:14.687Z,10.40
2022-08-11T18:11:01.889Z,10.95
2022-08-11T18:13:49.745Z,11.70
2022-08-11T18:16:36.572Z,11.32
2022-08-11T18:19:23.170Z,11.02
2022-08-11T18:22:14.585Z,11.10
2022-08-11T18:25:10.623Z,11.02
2022-08-11T18:27:59.481Z,10.70
2022-08-11T18:30:46.531Z,11.48
2022-08-11T18:34:05.433Z,11.15
2022-08-11T18:36:43.871Z,10.32
2022-08-11T18:39:31.821Z,10.70
2022-08-11T18:42:29.771Z,10.43
2022-08-11T18:45:20.579Z,11.35
2022-08-11T18:48:11.523Z,10.50
2022-08-11T18:51:31.586Z,9.05
2022-08-11T18:54:13.161Z,10.43
2022-08-11T18:57:01.196Z,9.93
2022-08-11T18:59:50.556Z,10.52
2022-08-11T19:02:49.275Z,9.82
2022-08-11T19:06:32.385Z,10.32
2022-08-11T19:08:48.172Z,10.55
2022-08-11T19:11:33.901Z,10.95
2022-08-11T19:14:22.785Z,10.98
2022-08-11T19:17:10.806Z,10.32
2022-08-11T19:19:57.508Z,10.88
2022-08-11T19:22:45.340Z,10.32
2022-08-11T19:25:32.264Z,10.20
2022-08-11T19:28:18.762Z,10.30
2022-08-11T19:31:05.171Z,10.52
2022-08-11T19:34:02.611Z,10.20
2022-08-11T19:36:56.748Z,10.68
2022-08-11T19:39:45.253Z,10.23
2022-08-11T19:42:32.079Z,9.15
2022-08-11T19:45:19.121Z,9.60
2022-08-11T19:48:30.586Z,9.50
2022-08-11T19:51:12.704Z,10.30
2022-08-11T19:53:59.067Z,10.90
2022-08-11T19:56:45.100Z,10.93
2022-08-11T19:59:32.098Z,11.43
2022-08-11T20:02:17.411Z,11.23
2022-08-11T20:05:02.889Z,10.25
2022-08-11T20:07:50.222Z,11.38
2022-08-11T20:10:39.491Z,11.70
2022-08-11T20:13:27.453Z,12.20
2022-08-11T20:16:14.889Z,11.65
2022-08-11T20:19:01.729Z,12.23
2022-08-11T20:21:47.650Z,11.45
2022-08-11T20:24:35.181Z,11.38
2022-08-11T20:27:24.779Z,10.52
2022-08-11T20:30:12.278Z,10.77
2022-08-11T20:32:59.740Z,11.85
2022-08-11T20:35:46.892Z,11.52
2022-08-11T20:38:33.705Z,12.00
2022-08-11T20:41:20.563Z,10.38
2022-08-11T20:44:09.501Z,10.52
2022-08-11T20:46:59.946Z,9.07
2022-08-11T20:49:50.594Z,8.55
2022-08-11T20:52:44.398Z,7.45
2022-08-11T20:55:51.684Z,6.88
2022-08-11T20:59:11.519Z,7.45
2022-08-11T21:01:46.136Z,7.22
2022-08-11T21:04:32.894Z,7.55
2022-08-11T21:07:28.773Z,7.57
2022-08-11T21:10:23.440Z,7.25
2022-08-11T21:13:24.113Z,7.72
2022-08-11T21:16:25.304Z,7.68
2022-08-11T21:19:14.708Z,7.53
2022-08-11T21:22:03.506Z,6.85
2022-08-11T21:24:51.697Z,8.07
2022-08-11T21:27:40.255Z,6.20
2022-08-11T21:30:26.621Z,8.00
2022-08-11T21:33:13.355Z,7.47
2022-08-11T21:35:59.208Z,8.63
2022-08-11T21:38:48.122Z,9.35
2022-08-11T21:41:35.926Z,8.65
2022-08-11T21:44:24.728Z,8.00
2022-08-11T21:47:12.189Z,7.68
2022-08-11T21:49:59.741Z,8.18
2022-08-11T21:52:46.195Z,7.95
2022-08-11T21:55:33.231Z,8.43
2022-08-11T21:58:19.272Z,8.60
2022-08-11T22:01:04.804Z,7.88
2022-08-11T22:03:50.754Z,8.07
2022-08-11T22:06:37.030Z,8.23
2022-08-11T22:09:22.858Z,8.13
2022-08-11T22:12:30.034Z,7.78
2022-08-11T22:15:16.703Z,7.78
2022-08-11T22:18:02.584Z,8.07
2022-08-11T22:20:48.953Z,8.05
2022-08-11T22:23:37.318Z,8.15
2022-08-11T22:26:24.222Z,8.38
2022-08-11T22:29:09.694Z,7.75
2022-08-11T22:31:56.168Z,8.15
2022-08-11T22:34:52.564Z,8.93
2022-08-11T22:37:40.086Z,7.80
2022-08-11T22:40:28.223Z,7.20
2022-08-11T22:43:13.776Z,7.22
2022-08-11T22:45:59.186Z,7.20
2022-08-11T22:48:49.559Z,7.47
2022-08-11T22:51:37.881Z,7.40
2022-08-11T22:54:23.926Z,7.03
2022-08-11T22:57:10.311Z,6.97
2022-08-11T22:59:57.153Z,6.55
2022-08-11T23:02:45.813Z,7.65
2022-08-11T23:05:33.862Z,7.05
2022-08-11T23:08:19.668Z,8.15
2022-08-11T23:11:09.498Z,7.97
2022-08-11T23:13:58.108Z,7.60
2022-08-11T23:16:49.327Z,7.03
2022-08-11T23:20:08.086Z,8.05
2022-08-11T23:22:49.386Z,7.85
2022-08-11T23:25:36.714Z,8.20
2022-08-11T23:28:24.749Z,8.32
2022-08-11T23:31:13.113Z,8.18
2022-08-11T23:34:03.397Z,8.07
2022-08-11T23:36:48.681Z,8.38
2022-08-11T23:39:36.118Z,7.60
2022-08-11T23:42:24.172Z,7.25
2022-08-11T23:45:10.225Z,7.38
2022-08-11T23:47:57.624Z,7.68
2022-08-11T23:50:43.541Z,8.10
2022-08-11T23:53:30.949Z,8.32
2022-08-11T23:56:17.467Z,8.55
2022-08-11T23:59:09.314Z,8.13
